createdAt,value
2022-10-12T00:01:41.075Z,11.45
2022-10-12T00:04:08.331Z,8.88
2022-10-12T00:06:35.431Z,9.43
2022-10-12T00:09:02.513Z,12.55
2022-10-12T00:11:30.711Z,10.63
2022-10-12T00:13:58.952Z,11.30
2022-10-12T00:16:26.644Z,11.88
2022-10-12T00:18:54.672Z,7.45
2022-10-12T00:21:22.290Z,11.68
2022-10-12T00:23:49.579Z,11.15
2022-10-12T00:26:17.784Z,9.23
2022-10-12T00:28:45.035Z,13.93
2022-10-12T00:31:14.235Z,17.00
2022-10-12T00:33:41.864Z,10.55
2022-10-12T00:36:13.732Z,10.40
2022-10-12T00:44:40.240Z,12.98
2022-10-12T00:47:46.347Z,12.18
2022-10-12T00:50:33.971Z,15.35
2022-10-12T00:53:08.814Z,9.23
2022-10-12T00:55:41.183Z,14.10
2022-10-12T00:58:13.870Z,10.90
2022-10-12T01:03:16.044Z,14.27
2022-10-12T01:05:43.369Z,15.32
2022-10-12T01:08:10.547Z,11.75
2022-10-12T01:10:37.991Z,17.70
2022-10-12T01:13:10.712Z,12.00
2022-10-12T01:15:56.945Z,10.88
2022-10-12T01:18:45.423Z,8.40
2022-10-12T01:21:27.139Z,10.15
2022-10-12T01:24:25.254Z,7.43
2022-10-12T01:27:22.245Z,9.57
2022-10-12T01:29:56.771Z,11.07
2022-10-12T01:32:35.519Z,9.18
2022-10-12T01:35:14.097Z,8.73
2022-10-12T01:38:00.159Z,8.77
2022-10-12T01:40:59.306Z,11.45
2022-10-12T01:43:34.283Z,14.05
2022-10-12T01:46:16.774Z,12.23
2022-10-12T01:48:51.159Z,11.25
2022-10-12T01:51:20.962Z,10.98
2022-10-12T01:54:08.749Z,7.95
2022-10-12T01:56:41.515Z,10.57
2022-10-12T01:59:18.826Z,9.70
2022-10-12T02:02:08.720Z,10.70
2022-10-12T02:04:43.550Z,12.50
2022-10-12T02:07:17.672Z,11.43
2022-10-12T02:09:45.750Z,11.27
2022-10-12T02:12:23.094Z,14.65
2022-10-12T02:15:03.015Z,12.27
2022-10-12T02:17:31.062Z,10.05
2022-10-12T02:20:00.023Z,12.32
2022-10-12T02:22:47.586Z,9.73
2022-10-12T02:25:20.042Z,8.57
2022-10-12T02:27:55.329Z,9.90
2022-10-12T02:30:24.023Z,8.20
2022-10-12T02:33:08.957Z,8.82
2022-10-12T02:36:16.657Z,10.38
2022-10-12T02:38:58.701Z,8.68
2022-10-12T02:41:41.769Z,10.07
2022-10-12T02:44:11.060Z,8.15
2022-10-12T02:46:39.640Z,14.15
2022-10-12T02:49:07.269Z,12.88
2022-10-12T02:51:34.965Z,12.13
2022-10-12T02:54:03.128Z,12.93
2022-10-12T02:56:30.452Z,13.90
2022-10-12T02:58:58.305Z,7.82
2022-10-12T03:01:25.704Z,8.60
2022-10-12T03:03:52.911Z,6.93
2022-10-12T03:06:20.332Z,12.13
2022-10-12T03:08:48.296Z,13.32
2022-10-12T03:11:16.226Z,13.95
2022-10-12T03:13:46.770Z,16.60
2022-10-12T03:16:14.004Z,11.98
2022-10-12T03:18:46.074Z,8.55
2022-10-12T03:21:31.006Z,12.45
2022-10-12T03:24:00.335Z,17.42
2022-10-12T03:26:30.264Z,10.85
2022-10-12T03:29:03.268Z,8.93
2022-10-12T03:31:32.671Z,13.98
2022-10-12T03:34:12.159Z,11.65
2022-10-12T03:36:45.763Z,11.60
2022-10-12T03:39:19.434Z,13.38
2022-10-12T03:41:49.399Z,13.90
2022-10-12T03:44:25.255Z,11.65
2022-10-12T03:46:57.896Z,13.02
2022-10-12T03:52:27.516Z,9.18
2022-10-12T03:54:58.574Z,11.43
2022-10-12T03:57:30.919Z,8.48
2022-10-12T04:00:04.925Z,12.68
2022-10-12T04:02:48.268Z,14.38
2022-10-12T04:05:18.731Z,12.57
2022-10-12T04:10:23.242Z,10.52
2022-10-12T04:12:50.815Z,13.23
2022-10-12T04:15:18.284Z,11.65
2022-10-12T04:17:45.811Z,15.30
2022-10-12T04:20:13.231Z,15.00
2022-10-12T04:22:42.022Z,15.32
2022-10-12T04:25:11.697Z,16.20
2022-10-12T04:27:39.972Z,16.63
2022-10-12T04:30:08.334Z,14.65
2022-10-12T04:32:36.247Z,10.43
2022-10-12T04:35:06.462Z,9.88
2022-10-12T04:37:34.067Z,15.60
2022-10-12T04:40:09.567Z,12.32
2022-10-12T04:46:07.463Z,10.88
2022-10-12T04:48:34.653Z,14.52
2022-10-12T04:51:01.833Z,10.73
2022-10-12T04:53:58.329Z,12.38
2022-10-12T04:56:36.535Z,10.95
2022-10-12T04:59:29.750Z,11.57
2022-10-12T05:02:04.052Z,9.30
2022-10-12T05:04:32.204Z,7.38
2022-10-12T05:07:05.199Z,15.13
2022-10-12T05:09:51.272Z,14.85
2022-10-12T05:12:23.611Z,7.85
2022-10-12T05:14:52.564Z,13.52
2022-10-12T05:17:34.506Z,8.25
2022-10-12T05:20:21.968Z,14.23
2022-10-12T05:23:02.320Z,13.23
2022-10-12T05:25:35.256Z,16.60
2022-10-12T05:28:13.465Z,7.22
2022-10-12T05:30:48.500Z,16.20
2022-10-12T05:33:30.965Z,7.90
2022-10-12T05:36:11.704Z,10.45
2022-10-12T05:38:46.329Z,13.73
2022-10-12T05:41:23.100Z,13.50
2022-10-12T05:43:56.840Z,11.90
2022-10-12T05:46:27.163Z,13.95
2022-10-12T05:48:55.860Z,13.02
2022-10-12T05:51:27.928Z,13.95
2022-10-12T05:53:55.928Z,12.32
2022-10-12T05:56:26.142Z,10.43
2022-10-12T05:58:55.908Z,14.07
2022-10-12T06:01:33.923Z,14.90
2022-10-12T06:04:08.955Z,14.88
2022-10-12T06:06:53.053Z,14.23
2022-10-12T06:15:29.602Z,18.33
2022-10-12T06:18:02.422Z,17.67
2022-10-12T06:20:50.290Z,10.82
2022-10-12T06:23:24.873Z,15.15
2022-10-12T06:26:24.494Z,9.50
2022-10-12T06:29:14.682Z,15.07
2022-10-12T06:34:43.878Z,11.73
2022-10-12T06:37:44.307Z,12.73
2022-10-12T06:49:17.998Z,15.70
2022-10-12T06:51:51.140Z,12.93
2022-10-12T06:54:22.301Z,12.07
2022-10-12T06:57:09.557Z,10.63
2022-10-12T06:59:42.359Z,15.35
2022-10-12T07:02:32.211Z,11.85
2022-10-12T07:05:18.955Z,8.57
2022-10-12T07:11:00.226Z,11.52
2022-10-12T07:19:13.591Z,13.70
2022-10-12T07:21:40.805Z,12.85
2022-10-12T07:24:08.301Z,10.35
2022-10-12T07:26:41.996Z,11.85
2022-10-12T07:29:28.113Z,14.18
2022-10-12T07:32:02.426Z,8.82
2022-10-12T07:34:52.134Z,15.80
2022-10-12T07:37:47.997Z,12.30
2022-10-12T07:40:25.268Z,13.13
2022-10-12T07:43:15.181Z,9.18
2022-10-12T07:45:58.481Z,7.10
2022-10-12T07:51:16.343Z,10.88
2022-10-12T07:53:53.602Z,6.25
2022-10-12T07:56:29.570Z,9.20
2022-10-12T07:59:12.536Z,9.65
2022-10-12T08:04:37.680Z,7.60
2022-10-12T08:07:23.706Z,10.95
2022-10-12T08:10:06.752Z,13.00
2022-10-12T08:12:52.092Z,11.38
2022-10-12T08:15:59.293Z,14.82
2022-10-12T08:18:41.040Z,14.30
2022-10-12T08:21:40.639Z,9.32
2022-10-12T08:24:41.188Z,12.63
2022-10-12T08:27:34.244Z,9.55
2022-10-12T08:32:50.661Z,11.85
2022-10-12T08:35:52.041Z,10.77
2022-10-12T08:38:27.055Z,13.43
2022-10-12T08:40:54.197Z,12.30
2022-10-12T08:43:38.359Z,14.88
2022-10-12T08:46:05.607Z,12.95
2022-10-12T08:48:32.678Z,12.70
2022-10-12T08:51:00.834Z,12.30
2022-10-12T08:53:37.071Z,13.57
2022-10-12T08:56:04.243Z,10.38
2022-10-12T08:58:31.383Z,12.02
2022-10-12T09:01:02.851Z,9.23
2022-10-12T09:03:33.148Z,14.02
2022-10-12T09:06:12.722Z,11.98
2022-10-12T09:08:59.317Z,9.73
2022-10-12T09:11:26.438Z,11.63
2022-10-12T09:14:02.538Z,12.00
2022-10-12T09:16:31.468Z,7.57
2022-10-12T09:19:04.232Z,8.82
2022-10-12T09:21:32.325Z,9.65
2022-10-12T09:23:59.805Z,7.25
2022-10-12T09:26:33.942Z,11.82
2022-10-12T09:29:02.145Z,10.23
2022-10-12T09:31:32.053Z,9.30
2022-10-12T09:34:00.130Z,11.30
2022-10-12T09:36:29.062Z,12.02
2022-10-12T09:38:57.694Z,8.00
2022-10-12T09:41:26.057Z,12.48
2022-10-12T09:43:55.937Z,14.13
2022-10-12T09:46:41.412Z,13.00
2022-10-12T09:49:08.590Z,16.73
2022-10-12T09:51:35.900Z,13.80
2022-10-12T09:54:04.239Z,13.60
2022-10-12T09:56:34.474Z,11.32
2022-10-12T09:59:02.444Z,10.77
2022-10-12T10:01:30.735Z,12.38
2022-10-12T10:04:08.669Z,13.43
2022-10-12T10:06:36.942Z,14.85
2022-10-12T10:09:04.566Z,11.43
2022-10-12T10:11:32.044Z,12.80
2022-10-12T10:14:00.224Z,11.18
2022-10-12T10:16:28.572Z,13.52
2022-10-12T10:19:00.342Z,15.48
2022-10-12T10:21:29.864Z,13.53
2022-10-12T10:23:56.967Z,14.35
2022-10-12T10:26:25.602Z,10.73
2022-10-12T10:28:56.963Z,14.50
2022-10-12T10:31:27.625Z,12.55
2022-10-12T10:34:13.569Z,19.27
2022-10-12T10:36:48.636Z,16.42
2022-10-12T10:39:27.928Z,13.43
2022-10-12T10:41:56.126Z,14.63
2022-10-12T10:44:29.154Z,18.73
2022-10-12T10:46:57.593Z,20.55
2022-10-12T10:49:30.881Z,15.00
2022-10-12T10:51:59.528Z,20.83
2022-10-12T10:54:28.340Z,15.57
2022-10-12T10:57:02.329Z,20.90
2022-10-12T10:59:49.773Z,19.13
2022-10-12T11:02:20.440Z,17.10
2022-10-12T11:04:50.412Z,18.48
2022-10-12T11:07:22.227Z,17.48
2022-10-12T11:09:52.528Z,18.30
2022-10-12T11:12:22.041Z,18.00
2022-10-12T11:14:51.434Z,16.52
2022-10-12T11:17:30.654Z,23.80
2022-10-12T11:20:06.680Z,19.85
2022-10-12T11:22:40.238Z,18.08
2022-10-12T11:25:29.541Z,21.25
2022-10-12T11:27:56.857Z,17.73
2022-10-12T11:30:25.687Z,19.38
2022-10-12T11:32:55.545Z,16.63
2022-10-12T11:35:29.907Z,16.27
2022-10-12T11:38:02.150Z,22.33
2022-10-12T11:41:00.252Z,20.73
2022-10-12T11:43:19.175Z,20.10
2022-10-12T11:45:49.397Z,22.20
2022-10-12T11:48:42.981Z,26.83
2022-10-12T11:51:11.864Z,18.75
2022-10-12T11:53:39.006Z,18.40
2022-10-12T11:56:24.397Z,24.02
2022-10-12T11:59:00.928Z,22.33
2022-10-12T12:01:34.500Z,25.23
2022-10-12T12:04:29.148Z,19.08
2022-10-12T12:06:59.166Z,23.40
2022-10-12T12:09:35.010Z,20.40
2022-10-12T12:12:09.404Z,20.38
2022-10-12T12:14:47.855Z,24.55
2022-10-12T12:17:30.807Z,22.92
2022-10-12T12:19:59.956Z,23.45
2022-10-12T12:22:30.166Z,23.75
2022-10-12T12:24:57.270Z,22.40
2022-10-12T12:27:29.833Z,20.05
2022-10-12T12:29:58.034Z,22.15
2022-10-12T12:32:26.958Z,25.20
2022-10-12T12:35:00.235Z,22.27
2022-10-12T12:37:32.444Z,25.08
2022-10-12T12:40:00.169Z,19.35
2022-10-12T12:42:32.199Z,20.70
2022-10-12T12:45:19.342Z,27.38
2022-10-12T12:47:46.908Z,24.83
2022-10-12T12:50:32.733Z,18.83
2022-10-12T12:53:07.958Z,19.98
2022-10-12T12:56:00.238Z,21.05
2022-10-12T12:58:42.591Z,18.23
2022-10-12T13:01:21.799Z,20.13
2022-10-12T13:04:07.073Z,21.23
2022-10-12T13:06:37.198Z,18.48
2022-10-12T13:09:07.157Z,16.02
2022-10-12T13:11:51.562Z,18.80
2022-10-12T13:14:27.518Z,19.55
2022-10-12T13:17:30.688Z,16.33
2022-10-12T13:19:42.044Z,18.55
2022-10-12T13:22:26.611Z,18.30
2022-10-12T13:24:55.834Z,27.92
2022-10-12T13:27:23.108Z,20.25
2022-10-12T13:30:09.044Z,21.52
2022-10-12T13:32:48.473Z,20.98
2022-10-12T13:35:18.065Z,18.95
2022-10-12T13:37:45.157Z,19.17
2022-10-12T13:40:28.471Z,14.50
2022-10-12T13:42:55.649Z,14.13
2022-10-12T13:45:22.792Z,20.90
2022-10-12T13:47:49.890Z,15.02
2022-10-12T13:50:20.591Z,16.55
2022-10-12T13:52:54.411Z,15.40
2022-10-12T13:55:29.128Z,16.00
2022-10-12T13:57:56.356Z,15.63
2022-10-12T14:00:27.318Z,18.48
2022-10-12T14:02:58.035Z,14.45
2022-10-12T14:05:26.315Z,23.13
2022-10-12T14:07:54.219Z,14.95
2022-10-12T14:10:27.034Z,18.45
2022-10-12T14:12:54.613Z,21.15
2022-10-12T14:15:22.445Z,20.85
2022-10-12T14:17:54.861Z,21.50
2022-10-12T14:20:30.464Z,14.10
2022-10-12T14:23:01.891Z,21.30
2022-10-12T14:25:30.631Z,15.40
2022-10-12T14:27:59.495Z,16.58
2022-10-12T14:30:31.193Z,18.85
2022-10-12T14:33:10.501Z,16.03
2022-10-12T14:35:42.092Z,20.50
2022-10-12T14:38:28.051Z,20.85
2022-10-12T14:40:55.158Z,18.77
2022-10-12T14:43:24.313Z,19.98
2022-10-12T14:45:52.412Z,20.33
2022-10-12T14:48:23.106Z,25.98
2022-10-12T14:50:51.178Z,16.27
2022-10-12T14:53:18.309Z,21.02
2022-10-12T16:11:36.117Z,24.05
2022-10-12T16:14:40.481Z,17.55
2022-10-12T16:17:18.915Z,21.02
2022-10-12T16:20:23.234Z,20.60
2022-10-12T16:28:46.168Z,25.17
2022-10-12T16:31:15.409Z,23.00
2022-10-12T16:33:42.708Z,23.10
2022-10-12T16:36:11.350Z,22.60
2022-10-12T16:38:38.468Z,32.22
2022-10-12T16:41:09.405Z,25.27
2022-10-12T16:43:36.605Z,20.88
2022-10-12T16:46:04.068Z,21.67
2022-10-12T16:48:31.593Z,29.05
2022-10-12T16:50:58.692Z,33.15
2022-10-12T16:53:25.853Z,28.25
2022-10-12T16:55:53.006Z,26.92
2022-10-12T16:58:20.166Z,26.73
2022-10-12T17:00:47.442Z,27.38
2022-10-12T17:03:14.709Z,28.40
2022-10-12T17:05:42.717Z,30.15
2022-10-12T17:08:15.063Z,25.33
2022-10-12T17:10:43.627Z,29.60
2022-10-12T17:13:10.819Z,31.27
